Aviation Digital Data Service (ADDS)

Output produced by METARs form (1156 UTC 22 March 2019)
found at http://www.aviationweather.gov/metar/data/
 
METAR text: DRRT 211800Z 32008KT 8000 NSC 37/M02 Q1007
Conditions at: DRRT (TAHOUA , NE) observed 1800 UTC 21 March 2019
Temperature: 37.0°C (99°F)
Dewpoint: -2.0°C (28°F) [RH =  8%]
Pressure (altimeter): 29.73 inches Hg (1007.0 mb)
Winds: from the NW (320 degrees) at 9 MPH (8 knots; 4.1 m/s)
Visibility: 5 miles ( 8 km)
Ceiling: at least 12,000 feet AGL
Clouds: sky clear below 12,000 feet AGL
Weather: no significant weather observed at this time

METAR text: DRRT 211500Z 32010KT 8000 NSC 39/04 Q1007
Conditions at: DRRT (TAHOUA , NE) observed 1500 UTC 21 March 2019
Temperature: 39.0°C (102°F)
Dewpoint: 4.0°C (39°F) [RH = 12%]
Pressure (altimeter): 29.73 inches Hg (1007.0 mb)
Winds: from the NW (320 degrees) at 12 MPH (10 knots; 5.1 m/s)
Visibility: 5 miles ( 8 km)
Ceiling: at least 12,000 feet AGL
Clouds: sky clear below 12,000 feet AGL
Weather: no significant weather observed at this time

METAR text: DRRT 211200Z 36012KT 8000 NSC 39/02 Q1009
Conditions at: DRRT (TAHOUA , NE) observed 1200 UTC 21 March 2019
Temperature: 39.0°C (102°F)
Dewpoint: 2.0°C (36°F) [RH = 10%]
Pressure (altimeter): 29.79 inches Hg (1009.0 mb)
Winds: from the N (360 degrees) at 14 MPH (12 knots; 6.2 m/s)
Visibility: 5 miles ( 8 km)
Ceiling: at least 12,000 feet AGL
Clouds: sky clear below 12,000 feet AGL
Weather: no significant weather observed at this time

METAR text: DRRT 211100Z 34008KT 8000 NSC 38/04 Q1009
Conditions at: DRRT (TAHOUA , NE) observed 1100 UTC 21 March 2019
Temperature: 38.0°C (100°F)
Dewpoint: 4.0°C (39°F) [RH = 12%]
Pressure (altimeter): 29.79 inches Hg (1009.0 mb)
Winds: from the NNW (340 degrees) at 9 MPH (8 knots; 4.1 m/s)
Visibility: 5 miles ( 8 km)
Ceiling: at least 12,000 feet AGL
Clouds: sky clear below 12,000 feet AGL
Weather: no significant weather observed at this time

METAR text: DRRT 211000Z 02010KT 8000 NSC 37/M01 Q1010
Conditions at: DRRT (TAHOUA , NE) observed 1000 UTC 21 March 2019
Temperature: 37.0°C (99°F)
Dewpoint: -1.0°C (30°F) [RH =  9%]
Pressure (altimeter): 29.82 inches Hg (1010.0 mb)
Winds: from the NNE (20 degrees) at 12 MPH (10 knots; 5.1 m/s)
Visibility: 5 miles ( 8 km)
Ceiling: at least 12,000 feet AGL
Clouds: sky clear below 12,000 feet AGL
Weather: no significant weather observed at this time

METAR text: DRRT 210900Z 04010KT CAVOK 34/M07 Q1010
Conditions at: DRRT (TAHOUA , NE) observed 0900 UTC 21 March 2019
Temperature: 34.0°C (93°F)
Dewpoint: -7.0°C (19°F) [RH =  7%]
Pressure (altimeter): 29.82 inches Hg (1010.0 mb)
Winds: from the NE (40 degrees) at 12 MPH (10 knots; 5.1 m/s)
Visibility: 6 or more miles (10+ km)
Ceiling: ceiling and visibility are OK
Clouds: unknown
Weather: no significant weather observed at this time

METAR text: DRRT 210800Z 04008KT CAVOK 31/M05 Q1009
Conditions at: DRRT (TAHOUA , NE) observed 0800 UTC 21 March 2019
Temperature: 31.0°C (88°F)
Dewpoint: -5.0°C (23°F) [RH =  9%]
Pressure (altimeter): 29.79 inches Hg (1009.0 mb)
Winds: from the NE (40 degrees) at 9 MPH (8 knots; 4.1 m/s)
Visibility: 6 or more miles (10+ km)
Ceiling: ceiling and visibility are OK
Clouds: unknown
Weather: no significant weather observed at this time

METAR text: DRRT 210700Z 04004KT CAVOK 28/M01 Q1009
Conditions at: DRRT (TAHOUA , NE) observed 0700 UTC 21 March 2019
Temperature: 28.0°C (82°F)
Dewpoint: -1.0°C (30°F) [RH = 15%]
Pressure (altimeter): 29.79 inches Hg (1009.0 mb)
Winds: from the NE (40 degrees) at 5 MPH (4 knots; 2.1 m/s)
Visibility: 6 or more miles (10+ km)
Ceiling: ceiling and visibility are OK
Clouds: unknown
Weather: no significant weather observed at this time

METAR text: DRRT 210600Z 04006KT CAVOK 27/M03 Q1008
Conditions at: DRRT (TAHOUA , NE) observed 0600 UTC 21 March 2019
Temperature: 27.0°C (81°F)
Dewpoint: -3.0°C (27°F) [RH = 14%]
Pressure (altimeter): 29.76 inches Hg (1008.0 mb)
Winds: from the NE (40 degrees) at 7 MPH (6 knots; 3.1 m/s)
Visibility: 6 or more miles (10+ km)
Ceiling: ceiling and visibility are OK
Clouds: unknown
Weather: no significant weather observed at this time